sensor_id;sensor_type;location;lat;lon;timestamp;P1;durP1;ratioP1;P2;durP2;ratioP2
34317;SDS011;20582;52.196;20.952;2023-03-30T00:02:23;26.30;;;11.05;;
34317;SDS011;20582;52.196;20.952;2023-03-30T00:04:49;29.95;;;12.45;;
34317;SDS011;20582;52.196;20.952;2023-03-30T00:07:15;28.02;;;12.07;;
34317;SDS011;20582;52.196;20.952;2023-03-30T00:09:41;30.30;;;11.77;;
34317;SDS011;20582;52.196;20.952;2023-03-30T00:12:08;25.95;;;12.05;;
34317;SDS011;20582;52.196;20.952;2023-03-30T00:14:34;25.50;;;10.82;;
34317;SDS011;20582;52.196;20.952;2023-03-30T00:17:02;28.25;;;11.60;;
34317;SDS011;20582;52.196;20.952;2023-03-30T00:19:28;24.00;;;10.95;;
34317;SDS011;20582;52.196;20.952;2023-03-30T00:21:53;23.73;;;12.23;;
34317;SDS011;20582;52.196;20.952;2023-03-30T00:24:19;29.98;;;11.55;;
34317;SDS011;20582;52.196;20.952;2023-03-30T00:26:45;20.88;;;10.05;;
34317;SDS011;20582;52.196;20.952;2023-03-30T00:29:11;22.92;;;11.43;;
34317;SDS011;20582;52.196;20.952;2023-03-30T00:31:37;25.42;;;11.13;;
34317;SDS011;20582;52.196;20.952;2023-03-30T00:34:03;21.90;;;10.85;;
34317;SDS011;20582;52.196;20.952;2023-03-30T00:36:29;31.13;;;11.63;;
34317;SDS011;20582;52.196;20.952;2023-03-30T00:39:01;27.33;;;11.73;;
34317;SDS011;20582;52.196;20.952;2023-03-30T00:41:30;29.65;;;11.82;;
34317;SDS011;20582;52.196;20.952;2023-03-30T00:44:00;27.05;;;11.38;;
34317;SDS011;20582;52.196;20.952;2023-03-30T00:46:27;26.07;;;12.37;;
34317;SDS011;20582;52.196;20.952;2023-03-30T00:48:54;28.95;;;12.63;;
34317;SDS011;20582;52.196;20.952;2023-03-30T00:51:23;29.85;;;11.73;;
34317;SDS011;20582;52.196;20.952;2023-03-30T00:53:50;24.92;;;12.10;;
34317;SDS011;20582;52.196;20.952;2023-03-30T00:56:18;24.23;;;11.70;;
34317;SDS011;20582;52.196;20.952;2023-03-30T00:58:47;24.50;;;12.05;;
34317;SDS011;20582;52.196;20.952;2023-03-30T01:01:14;24.63;;;11.45;;
34317;SDS011;20582;52.196;20.952;2023-03-30T01:03:49;26.58;;;11.77;;
34317;SDS011;20582;52.196;20.952;2023-03-30T01:06:15;24.92;;;11.23;;
34317;SDS011;20582;52.196;20.952;2023-03-30T01:08:45;25.20;;;11.13;;
34317;SDS011;20582;52.196;20.952;2023-03-30T01:11:12;29.13;;;12.02;;
34317;SDS011;20582;52.196;20.952;2023-03-30T01:13:39;27.40;;;11.63;;
34317;SDS011;20582;52.196;20.952;2023-03-30T01:19:05;23.50;;;11.68;;
34317;SDS011;20582;52.196;20.952;2023-03-30T01:27:24;28.35;;;11.13;;
34317;SDS011;20582;52.196;20.952;2023-03-30T01:30:03;27.90;;;11.18;;
34317;SDS011;20582;52.196;20.952;2023-03-30T01:35:23;26.45;;;11.93;;
34317;SDS011;20582;52.196;20.952;2023-03-30T01:42:57;28.70;;;11.20;;
34317;SDS011;20582;52.196;20.952;2023-03-30T01:45:42;24.23;;;11.43;;
34317;SDS011;20582;52.196;20.952;2023-03-30T01:48:12;26.98;;;10.90;;
34317;SDS011;20582;52.196;20.952;2023-03-30T01:50:40;21.95;;;10.05;;
34317;SDS011;20582;52.196;20.952;2023-03-30T01:53:12;29.75;;;11.77;;
34317;SDS011;20582;52.196;20.952;2023-03-30T01:55:54;26.33;;;11.48;;
34317;SDS011;20582;52.196;20.952;2023-03-30T01:58:33;29.55;;;12.48;;
34317;SDS011;20582;52.196;20.952;2023-03-30T02:01:00;41.50;;;17.95;;
34317;SDS011;20582;52.196;20.952;2023-03-30T02:03:28;57.47;;;20.65;;
34317;SDS011;20582;52.196;20.952;2023-03-30T02:05:56;35.95;;;14.55;;
34317;SDS011;20582;52.196;20.952;2023-03-30T02:08:25;30.50;;;12.85;;
34317;SDS011;20582;52.196;20.952;2023-03-30T02:10:53;29.35;;;12.00;;
34317;SDS011;20582;52.196;20.952;2023-03-30T02:13:20;23.98;;;11.52;;
34317;SDS011;20582;52.196;20.952;2023-03-30T02:15:48;24.40;;;12.10;;
34317;SDS011;20582;52.196;20.952;2023-03-30T02:18:16;25.92;;;11.70;;
34317;SDS011;20582;52.196;20.952;2023-03-30T02:20:44;23.58;;;11.70;;
34317;SDS011;20582;52.196;20.952;2023-03-30T02:23:10;23.65;;;10.73;;
34317;SDS011;20582;52.196;20.952;2023-03-30T02:25:37;21.27;;;10.48;;
34317;SDS011;20582;52.196;20.952;2023-03-30T02:28:05;25.02;;;11.77;;
34317;SDS011;20582;52.196;20.952;2023-03-30T02:30:36;26.83;;;11.10;;
34317;SDS011;20582;52.196;20.952;2023-03-30T02:33:04;25.48;;;11.30;;
34317;SDS011;20582;52.196;20.952;2023-03-30T02:43:33;27.42;;;11.50;;
34317;SDS011;20582;52.196;20.952;2023-03-30T02:51:33;28.45;;;12.57;;
34317;SDS011;20582;52.196;20.952;2023-03-30T02:53:57;23.85;;;10.68;;
34317;SDS011;20582;52.196;20.952;2023-03-30T03:04:22;27.63;;;11.35;;
34317;SDS011;20582;52.196;20.952;2023-03-30T03:06:48;22.85;;;10.88;;
34317;SDS011;20582;52.196;20.952;2023-03-30T03:09:17;26.15;;;11.63;;
34317;SDS011;20582;52.196;20.952;2023-03-30T03:11:43;27.52;;;11.73;;
34317;SDS011;20582;52.196;20.952;2023-03-30T03:14:09;25.23;;;11.20;;
34317;SDS011;20582;52.196;20.952;2023-03-30T03:16:35;30.80;;;11.52;;
34317;SDS011;20582;52.196;20.952;2023-03-30T03:19:02;28.65;;;11.82;;
34317;SDS011;20582;52.196;20.952;2023-03-30T03:21:28;24.98;;;10.93;;
34317;SDS011;20582;52.196;20.952;2023-03-30T03:23:54;26.65;;;12.30;;
34317;SDS011;20582;52.196;20.952;2023-03-30T03:26:20;24.33;;;11.77;;
34317;SDS011;20582;52.196;20.952;2023-03-30T03:28:47;22.58;;;11.13;;
34317;SDS011;20582;52.196;20.952;2023-03-30T03:31:13;27.65;;;12.05;;
34317;SDS011;20582;52.196;20.952;2023-03-30T03:33:39;29.52;;;12.68;;
34317;SDS011;20582;52.196;20.952;2023-03-30T03:36:05;26.67;;;12.20;;
34317;SDS011;20582;52.196;20.952;2023-03-30T03:38:31;24.13;;;11.52;;
34317;SDS011;20582;52.196;20.952;2023-03-30T03:40:57;24.15;;;11.45;;
34317;SDS011;20582;52.196;20.952;2023-03-30T03:43:24;22.92;;;12.25;;
34317;SDS011;20582;52.196;20.952;2023-03-30T03:45:50;29.20;;;12.40;;
34317;SDS011;20582;52.196;20.952;2023-03-30T03:48:17;27.95;;;11.95;;
34317;SDS011;20582;52.196;20.952;2023-03-30T03:50:44;23.85;;;10.95;;
34317;SDS011;20582;52.196;20.952;2023-03-30T03:53:10;25.67;;;11.80;;
34317;SDS011;20582;52.196;20.952;2023-03-30T03:55:37;28.80;;;13.50;;
34317;SDS011;20582;52.196;20.952;2023-03-30T03:58:03;32.45;;;13.45;;
34317;SDS011;20582;52.196;20.952;2023-03-30T04:00:31;27.45;;;12.32;;
34317;SDS011;20582;52.196;20.952;2023-03-30T04:02:58;30.45;;;12.13;;
34317;SDS011;20582;52.196;20.952;2023-03-30T04:05:24;28.08;;;13.38;;
34317;SDS011;20582;52.196;20.952;2023-03-30T04:07:50;30.88;;;12.73;;
34317;SDS011;20582;52.196;20.952;2023-03-30T04:10:17;29.38;;;14.13;;
34317;SDS011;20582;52.196;20.952;2023-03-30T04:12:44;29.90;;;13.38;;
34317;SDS011;20582;52.196;20.952;2023-03-30T04:15:10;29.35;;;13.57;;
34317;SDS011;20582;52.196;20.952;2023-03-30T04:17:36;28.92;;;12.23;;
34317;SDS011;20582;52.196;20.952;2023-03-30T04:20:03;24.92;;;12.40;;
34317;SDS011;20582;52.196;20.952;2023-03-30T04:22:30;28.48;;;13.13;;
34317;SDS011;20582;52.196;20.952;2023-03-30T04:25:05;27.80;;;12.63;;
34317;SDS011;20582;52.196;20.952;2023-03-30T04:27:32;26.65;;;12.20;;
34317;SDS011;20582;52.196;20.952;2023-03-30T04:29:58;25.48;;;10.90;;
34317;SDS011;20582;52.196;20.952;2023-03-30T04:32:26;28.13;;;12.35;;
34317;SDS011;20582;52.196;20.952;2023-03-30T04:34:58;27.00;;;12.82;;
34317;SDS011;20582;52.196;20.952;2023-03-30T04:37:24;27.92;;;13.25;;
34317;SDS011;20582;52.196;20.952;2023-03-30T04:39:57;26.90;;;12.75;;
34317;SDS011;20582;52.196;20.952;2023-03-30T04:42:27;31.20;;;12.60;;
34317;SDS011;20582;52.196;20.952;2023-03-30T04:44:58;27.67;;;11.60;;
34317;SDS011;20582;52.196;20.952;2023-03-30T04:47:25;30.70;;;13.43;;
34317;SDS011;20582;52.196;20.952;2023-03-30T04:49:51;27.70;;;12.88;;
34317;SDS011;20582;52.196;20.952;2023-03-30T04:52:17;25.85;;;13.02;;
34317;SDS011;20582;52.196;20.952;2023-03-30T04:54:43;24.95;;;12.70;;
34317;SDS011;20582;52.196;20.952;2023-03-30T04:57:09;33.05;;;13.30;;
34317;SDS011;20582;52.196;20.952;2023-03-30T04:59:37;32.80;;;14.32;;
34317;SDS011;20582;52.196;20.952;2023-03-30T05:02:03;28.35;;;13.00;;
34317;SDS011;20582;52.196;20.952;2023-03-30T05:04:29;28.35;;;13.38;;
34317;SDS011;20582;52.196;20.952;2023-03-30T05:06:55;27.90;;;13.23;;
34317;SDS011;20582;52.196;20.952;2023-03-30T05:09:21;25.27;;;11.98;;
34317;SDS011;20582;52.196;20.952;2023-03-30T05:11:47;30.02;;;12.65;;
34317;SDS011;20582;52.196;20.952;2023-03-30T05:14:14;27.75;;;13.23;;
34317;SDS011;20582;52.196;20.952;2023-03-30T05:16:40;32.53;;;13.57;;
34317;SDS011;20582;52.196;20.952;2023-03-30T05:19:06;26.73;;;13.13;;
34317;SDS011;20582;52.196;20.952;2023-03-30T05:21:32;25.05;;;12.98;;
34317;SDS011;20582;52.196;20.952;2023-03-30T05:23:58;28.08;;;13.18;;
34317;SDS011;20582;52.196;20.952;2023-03-30T05:26:24;31.75;;;13.75;;
34317;SDS011;20582;52.196;20.952;2023-03-30T05:28:52;26.42;;;13.13;;
34317;SDS011;20582;52.196;20.952;2023-03-30T05:31:19;28.92;;;13.15;;
34317;SDS011;20582;52.196;20.952;2023-03-30T05:33:45;35.28;;;14.60;;
34317;SDS011;20582;52.196;20.952;2023-03-30T05:36:11;28.80;;;13.38;;
34317;SDS011;20582;52.196;20.952;2023-03-30T05:38:37;31.27;;;14.60;;
34317;SDS011;20582;52.196;20.952;2023-03-30T05:41:03;34.05;;;12.45;;
34317;SDS011;20582;52.196;20.952;2023-03-30T05:43:31;24.80;;;12.98;;
34317;SDS011;20582;52.196;20.952;2023-03-30T05:45:57;32.17;;;13.45;;
34317;SDS011;20582;52.196;20.952;2023-03-30T05:48:23;28.98;;;13.15;;
34317;SDS011;20582;52.196;20.952;2023-03-30T05:50:49;26.98;;;13.55;;
34317;SDS011;20582;52.196;20.952;2023-03-30T05:53:15;32.25;;;14.23;;
34317;SDS011;20582;52.196;20.952;2023-03-30T05:55:42;34.50;;;13.18;;
34317;SDS011;20582;52.196;20.952;2023-03-30T05:58:09;28.33;;;12.75;;
34317;SDS011;20582;52.196;20.952;2023-03-30T06:00:35;28.50;;;13.45;;
34317;SDS011;20582;52.196;20.952;2023-03-30T06:03:02;25.67;;;13.23;;
34317;SDS011;20582;52.196;20.952;2023-03-30T06:05:28;25.95;;;13.25;;
34317;SDS011;20582;52.196;20.952;2023-03-30T06:07:54;29.27;;;14.55;;
34317;SDS011;20582;52.196;20.952;2023-03-30T06:10:20;31.17;;;14.82;;
34317;SDS011;20582;52.196;20.952;2023-03-30T06:12:46;28.85;;;13.52;;
34317;SDS011;20582;52.196;20.952;2023-03-30T06:15:12;29.60;;;13.98;;
34317;SDS011;20582;52.196;20.952;2023-03-30T06:17:38;31.80;;;14.90;;
34317;SDS011;20582;52.196;20.952;2023-03-30T06:20:05;32.25;;;15.85;;
34317;SDS011;20582;52.196;20.952;2023-03-30T06:22:35;29.25;;;14.13;;
34317;SDS011;20582;52.196;20.952;2023-03-30T06:25:01;31.13;;;13.75;;
34317;SDS011;20582;52.196;20.952;2023-03-30T06:27:27;36.00;;;13.65;;
34317;SDS011;20582;52.196;20.952;2023-03-30T06:29:56;28.23;;;13.68;;
34317;SDS011;20582;52.196;20.952;2023-03-30T06:32:22;31.02;;;14.65;;
34317;SDS011;20582;52.196;20.952;2023-03-30T06:34:48;31.77;;;14.05;;
34317;SDS011;20582;52.196;20.952;2023-03-30T06:37:14;28.33;;;13.60;;
34317;SDS011;20582;52.196;20.952;2023-03-30T06:39:40;30.50;;;13.43;;
34317;SDS011;20582;52.196;20.952;2023-03-30T06:42:06;29.38;;;13.80;;
34317;SDS011;20582;52.196;20.952;2023-03-30T06:44:32;25.95;;;13.75;;
34317;SDS011;20582;52.196;20.952;2023-03-30T06:46:59;26.98;;;13.85;;
34317;SDS011;20582;52.196;20.952;2023-03-30T06:49:25;25.85;;;12.95;;
34317;SDS011;20582;52.196;20.952;2023-03-30T06:51:52;32.63;;;13.52;;
34317;SDS011;20582;52.196;20.952;2023-03-30T06:54:18;31.50;;;14.20;;
34317;SDS011;20582;52.196;20.952;2023-03-30T06:56:47;27.48;;;12.88;;
34317;SDS011;20582;52.196;20.952;2023-03-30T06:59:13;29.85;;;13.77;;
34317;SDS011;20582;52.196;20.952;2023-03-30T07:01:40;24.58;;;13.68;;
34317;SDS011;20582;52.196;20.952;2023-03-30T07:04:06;27.05;;;13.57;;
34317;SDS011;20582;52.196;20.952;2023-03-30T07:06:32;33.70;;;13.90;;
34317;SDS011;20582;52.196;20.952;2023-03-30T07:08:58;29.75;;;13.75;;
34317;SDS011;20582;52.196;20.952;2023-03-30T07:11:25;27.13;;;14.13;;
34317;SDS011;20582;52.196;20.952;2023-03-30T07:13:51;31.33;;;14.57;;
34317;SDS011;20582;52.196;20.952;2023-03-30T07:16:20;29.33;;;13.38;;
34317;SDS011;20582;52.196;20.952;2023-03-30T07:18:46;29.35;;;13.02;;
34317;SDS011;20582;52.196;20.952;2023-03-30T07:21:12;26.23;;;12.77;;
34317;SDS011;20582;52.196;20.952;2023-03-30T07:23:38;25.58;;;12.50;;
34317;SDS011;20582;52.196;20.952;2023-03-30T07:26:05;32.72;;;13.65;;
34317;SDS011;20582;52.196;20.952;2023-03-30T07:28:31;28.38;;;13.65;;
34317;SDS011;20582;52.196;20.952;2023-03-30T07:31:04;27.80;;;14.48;;
34317;SDS011;20582;52.196;20.952;2023-03-30T07:33:30;27.85;;;13.18;;
34317;SDS011;20582;52.196;20.952;2023-03-30T07:35:56;29.60;;;13.63;;
34317;SDS011;20582;52.196;20.952;2023-03-30T07:38:22;27.23;;;13.18;;
34317;SDS011;20582;52.196;20.952;2023-03-30T07:40:48;26.35;;;13.02;;
34317;SDS011;20582;52.196;20.952;2023-03-30T07:43:15;25.13;;;12.80;;
34317;SDS011;20582;52.196;20.952;2023-03-30T07:45:41;21.73;;;11.82;;
34317;SDS011;20582;52.196;20.952;2023-03-30T07:48:07;28.15;;;13.40;;
34317;SDS011;20582;52.196;20.952;2023-03-30T07:50:33;27.13;;;13.02;;
34317;SDS011;20582;52.196;20.952;2023-03-30T07:52:59;25.35;;;13.45;;
34317;SDS011;20582;52.196;20.952;2023-03-30T07:55:25;27.42;;;13.55;;
34317;SDS011;20582;52.196;20.952;2023-03-30T07:57:53;25.45;;;12.65;;
34317;SDS011;20582;52.196;20.952;2023-03-30T08:00:19;30.23;;;13.50;;
34317;SDS011;20582;52.196;20.952;2023-03-30T08:02:46;28.50;;;12.07;;
34317;SDS011;20582;52.196;20.952;2023-03-30T08:05:12;25.38;;;13.23;;
34317;SDS011;20582;52.196;20.952;2023-03-30T08:07:39;28.42;;;12.70;;
34317;SDS011;20582;52.196;20.952;2023-03-30T08:10:06;21.88;;;12.05;;
34317;SDS011;20582;52.196;20.952;2023-03-30T08:12:32;24.35;;;12.57;;
34317;SDS011;20582;52.196;20.952;2023-03-30T08:14:58;24.85;;;13.00;;
34317;SDS011;20582;52.196;20.952;2023-03-30T08:17:25;23.58;;;12.77;;
34317;SDS011;20582;52.196;20.952;2023-03-30T08:19:51;25.85;;;12.10;;
34317;SDS011;20582;52.196;20.952;2023-03-30T08:22:17;24.70;;;13.07;;
34317;SDS011;20582;52.196;20.952;2023-03-30T08:24:43;26.17;;;12.50;;
34317;SDS011;20582;52.196;20.952;2023-03-30T08:27:09;27.67;;;13.50;;
34317;SDS011;20582;52.196;20.952;2023-03-30T08:29:35;24.13;;;12.93;;
34317;SDS011;20582;52.196;20.952;2023-03-30T08:32:01;26.23;;;13.80;;
34317;SDS011;20582;52.196;20.952;2023-03-30T08:34:27;26.60;;;13.88;;
34317;SDS011;20582;52.196;20.952;2023-03-30T08:36:53;26.88;;;13.68;;
34317;SDS011;20582;52.196;20.952;2023-03-30T08:39:19;22.80;;;13.63;;
34317;SDS011;20582;52.196;20.952;2023-03-30T08:44:37;28.50;;;14.13;;
34317;SDS011;20582;52.196;20.952;2023-03-30T08:47:05;26.98;;;14.27;;
34317;SDS011;20582;52.196;20.952;2023-03-30T08:49:34;28.92;;;14.70;;
34317;SDS011;20582;52.196;20.952;2023-03-30T08:52:03;27.23;;;15.03;;
34317;SDS011;20582;52.196;20.952;2023-03-30T08:54:30;29.92;;;14.13;;
34317;SDS011;20582;52.196;20.952;2023-03-30T08:57:02;28.98;;;15.02;;
34317;SDS011;20582;52.196;20.952;2023-03-30T09:02:00;28.52;;;15.57;;
34317;SDS011;20582;52.196;20.952;2023-03-30T09:06:54;26.00;;;14.10;;
34317;SDS011;20582;52.196;20.952;2023-03-30T09:09:23;26.30;;;15.02;;
34317;SDS011;20582;52.196;20.952;2023-03-30T09:12:07;27.25;;;14.02;;
34317;SDS011;20582;52.196;20.952;2023-03-30T09:14:40;27.10;;;14.38;;
34317;SDS011;20582;52.196;20.952;2023-03-30T09:17:14;26.33;;;14.00;;
34317;SDS011;20582;52.196;20.952;2023-03-30T09:19:45;26.90;;;14.80;;
34317;SDS011;20582;52.196;20.952;2023-03-30T09:22:11;27.38;;;14.00;;
34317;SDS011;20582;52.196;20.952;2023-03-30T09:24:38;23.95;;;13.77;;
34317;SDS011;20582;52.196;20.952;2023-03-30T09:27:53;25.95;;;13.13;;
34317;SDS011;20582;52.196;20.952;2023-03-30T09:29:51;27.73;;;14.30;;
34317;SDS011;20582;52.196;20.952;2023-03-30T09:32:30;25.38;;;13.45;;
34317;SDS011;20582;52.196;20.952;2023-03-30T09:37:42;26.13;;;14.15;;
34317;SDS011;20582;52.196;20.952;2023-03-30T09:45:37;32.55;;;15.68;;
34317;SDS011;20582;52.196;20.952;2023-03-30T09:48:04;28.08;;;15.07;;
34317;SDS011;20582;52.196;20.952;2023-03-30T09:50:35;25.17;;;13.43;;
34317;SDS011;20582;52.196;20.952;2023-03-30T09:53:03;25.70;;;13.98;;
34317;SDS011;20582;52.196;20.952;2023-03-30T09:55:32;25.25;;;13.75;;
34317;SDS011;20582;52.196;20.952;2023-03-30T09:58:17;25.63;;;13.38;;
34317;SDS011;20582;52.196;20.952;2023-03-30T10:00:44;20.80;;;11.55;;
34317;SDS011;20582;52.196;20.952;2023-03-30T10:03:21;22.17;;;11.63;;
34317;SDS011;20582;52.196;20.952;2023-03-30T10:06:07;22.25;;;11.90;;
34317;SDS011;20582;52.196;20.952;2023-03-30T10:08:43;22.00;;;10.85;;
34317;SDS011;20582;52.196;20.952;2023-03-30T10:11:18;19.45;;;11.27;;
34317;SDS011;20582;52.196;20.952;2023-03-30T10:13:44;27.05;;;12.73;;
34317;SDS011;20582;52.196;20.952;2023-03-30T10:16:24;19.02;;;11.13;;
34317;SDS011;20582;52.196;20.952;2023-03-30T10:19:33;19.35;;;11.32;;
34317;SDS011;20582;52.196;20.952;2023-03-30T10:21:40;18.90;;;11.13;;
34317;SDS011;20582;52.196;20.952;2023-03-30T10:26:40;20.67;;;11.70;;
34317;SDS011;20582;52.196;20.952;2023-03-30T10:29:11;18.60;;;10.25;;
34317;SDS011;20582;52.196;20.952;2023-03-30T10:31:38;19.40;;;11.55;;
34317;SDS011;20582;52.196;20.952;2023-03-30T10:34:06;23.15;;;11.95;;
34317;SDS011;20582;52.196;20.952;2023-03-30T10:36:39;26.08;;;15.23;;
34317;SDS011;20582;52.196;20.952;2023-03-30T10:39:13;21.58;;;12.75;;
34317;SDS011;20582;52.196;20.952;2023-03-30T10:41:41;19.80;;;10.95;;
34317;SDS011;20582;52.196;20.952;2023-03-30T10:44:16;18.67;;;10.38;;
34317;SDS011;20582;52.196;20.952;2023-03-30T10:46:44;19.08;;;11.30;;
34317;SDS011;20582;52.196;20.952;2023-03-30T10:56:47;18.98;;;10.48;;
34317;SDS011;20582;52.196;20.952;2023-03-30T11:06:52;22.20;;;11.48;;
34317;SDS011;20582;52.196;20.952;2023-03-30T11:09:20;18.80;;;11.85;;
34317;SDS011;20582;52.196;20.952;2023-03-30T11:11:49;19.23;;;11.45;;
34317;SDS011;20582;52.196;20.952;2023-03-30T11:14:22;17.40;;;11.02;;
34317;SDS011;20582;52.196;20.952;2023-03-30T11:16:52;19.63;;;11.50;;
34317;SDS011;20582;52.196;20.952;2023-03-30T11:19:29;20.17;;;11.32;;
34317;SDS011;20582;52.196;20.952;2023-03-30T11:24:29;22.50;;;13.02;;
34317;SDS011;20582;52.196;20.952;2023-03-30T11:27:00;32.55;;;16.75;;
34317;SDS011;20582;52.196;20.952;2023-03-30T11:30:12;21.60;;;12.02;;
34317;SDS011;20582;52.196;20.952;2023-03-30T11:35:52;18.83;;;10.80;;
34317;SDS011;20582;52.196;20.952;2023-03-30T11:37:47;20.85;;;11.15;;
34317;SDS011;20582;52.196;20.952;2023-03-30T11:40:17;19.75;;;12.20;;
34317;SDS011;20582;52.196;20.952;2023-03-30T11:42:43;20.85;;;12.07;;
34317;SDS011;20582;52.196;20.952;2023-03-30T11:45:15;18.27;;;11.40;;
34317;SDS011;20582;52.196;20.952;2023-03-30T11:47:55;21.98;;;13.38;;
34317;SDS011;20582;52.196;20.952;2023-03-30T11:50:46;29.38;;;16.65;;
34317;SDS011;20582;52.196;20.952;2023-03-30T11:53:22;23.08;;;12.20;;
34317;SDS011;20582;52.196;20.952;2023-03-30T11:56:12;18.02;;;10.38;;
34317;SDS011;20582;52.196;20.952;2023-03-30T11:58:44;18.98;;;10.82;;
34317;SDS011;20582;52.196;20.952;2023-03-30T12:03:43;18.10;;;10.73;;
34317;SDS011;20582;52.196;20.952;2023-03-30T12:06:14;18.10;;;10.18;;
34317;SDS011;20582;52.196;20.952;2023-03-30T12:11:12;16.45;;;10.50;;
34317;SDS011;20582;52.196;20.952;2023-03-30T12:13:41;17.30;;;10.60;;
34317;SDS011;20582;52.196;20.952;2023-03-30T12:16:08;15.85;;;10.18;;
34317;SDS011;20582;52.196;20.952;2023-03-30T12:18:42;15.98;;;10.73;;
34317;SDS011;20582;52.196;20.952;2023-03-30T12:21:29;16.10;;;10.55;;
34317;SDS011;20582;52.196;20.952;2023-03-30T12:26:31;15.95;;;10.02;;
34317;SDS011;20582;52.196;20.952;2023-03-30T12:34:14;15.68;;;10.43;;
34317;SDS011;20582;52.196;20.952;2023-03-30T12:36:47;19.45;;;9.95;;
34317;SDS011;20582;52.196;20.952;2023-03-30T12:41:42;16.98;;;10.05;;
34317;SDS011;20582;52.196;20.952;2023-03-30T12:57:30;17.25;;;9.73;;
34317;SDS011;20582;52.196;20.952;2023-03-30T13:00:21;21.75;;;9.23;;
34317;SDS011;20582;52.196;20.952;2023-03-30T13:02:50;15.48;;;8.35;;
34317;SDS011;20582;52.196;20.952;2023-03-30T13:05:29;18.88;;;8.70;;
34317;SDS011;20582;52.196;20.952;2023-03-30T13:07:56;17.38;;;8.55;;
34317;SDS011;20582;52.196;20.952;2023-03-30T13:12:56;17.13;;;8.10;;
34317;SDS011;20582;52.196;20.952;2023-03-30T13:20:26;18.67;;;10.70;;
34317;SDS011;20582;52.196;20.952;2023-03-30T13:28:00;22.05;;;8.70;;
34317;SDS011;20582;52.196;20.952;2023-03-30T13:30:46;17.92;;;7.88;;
34317;SDS011;20582;52.196;20.952;2023-03-30T13:33:16;17.50;;;8.50;;
34317;SDS011;20582;52.196;20.952;2023-03-30T13:35:47;15.00;;;8.13;;
34317;SDS011;20582;52.196;20.952;2023-03-30T13:49:05;16.85;;;6.90;;
34317;SDS011;20582;52.196;20.952;2023-03-30T13:51:33;19.98;;;7.55;;
34317;SDS011;20582;52.196;20.952;2023-03-30T13:54:11;17.15;;;7.65;;
34317;SDS011;20582;52.196;20.952;2023-03-30T13:56:39;10.63;;;5.72;;
34317;SDS011;20582;52.196;20.952;2023-03-30T13:59:08;12.13;;;5.32;;
34317;SDS011;20582;52.196;20.952;2023-03-30T14:01:35;11.57;;;5.82;;
34317;SDS011;20582;52.196;20.952;2023-03-30T14:04:02;12.82;;;6.22;;
34317;SDS011;20582;52.196;20.952;2023-03-30T14:06:30;14.60;;;5.97;;
34317;SDS011;20582;52.196;20.952;2023-03-30T14:11:34;13.10;;;6.28;;
34317;SDS011;20582;52.196;20.952;2023-03-30T14:14:02;13.15;;;6.40;;
34317;SDS011;20582;52.196;20.952;2023-03-30T14:16:33;13.68;;;5.78;;
34317;SDS011;20582;52.196;20.952;2023-03-30T14:21:38;13.80;;;6.40;;
34317;SDS011;20582;52.196;20.952;2023-03-30T14:24:09;12.98;;;5.50;;
34317;SDS011;20582;52.196;20.952;2023-03-30T14:26:38;16.73;;;6.78;;
34317;SDS011;20582;52.196;20.952;2023-03-30T14:29:05;13.05;;;6.35;;
34317;SDS011;20582;52.196;20.952;2023-03-30T14:31:39;20.55;;;8.40;;
34317;SDS011;20582;52.196;20.952;2023-03-30T14:34:20;23.50;;;9.80;;
34317;SDS011;20582;52.196;20.952;2023-03-30T14:36:46;13.95;;;6.75;;
34317;SDS011;20582;52.196;20.952;2023-03-30T14:39:12;14.50;;;7.88;;
34317;SDS011;20582;52.196;20.952;2023-03-30T14:41:39;13.05;;;5.95;;
34317;SDS011;20582;52.196;20.952;2023-03-30T14:44:05;18.60;;;9.25;;
34317;SDS011;20582;52.196;20.952;2023-03-30T14:46:44;24.85;;;11.82;;
34317;SDS011;20582;52.196;20.952;2023-03-30T14:49:19;22.05;;;10.90;;
34317;SDS011;20582;52.196;20.952;2023-03-30T14:51:49;21.98;;;10.38;;
34317;SDS011;20582;52.196;20.952;2023-03-30T14:54:16;18.67;;;9.10;;
34317;SDS011;20582;52.196;20.952;2023-03-30T14:56:44;14.85;;;6.30;;
34317;SDS011;20582;52.196;20.952;2023-03-30T14:59:11;16.10;;;6.40;;
34317;SDS011;20582;52.196;20.952;2023-03-30T15:01:37;14.27;;;6.75;;
34317;SDS011;20582;52.196;20.952;2023-03-30T15:04:06;27.15;;;9.63;;
34317;SDS011;20582;52.196;20.952;2023-03-30T15:06:34;14.98;;;7.63;;
34317;SDS011;20582;52.196;20.952;2023-03-30T15:09:01;15.70;;;7.40;;
34317;SDS011;20582;52.196;20.952;2023-03-30T15:11:27;31.92;;;15.20;;
34317;SDS011;20582;52.196;20.952;2023-03-30T15:13:55;31.23;;;13.55;;
34317;SDS011;20582;52.196;20.952;2023-03-30T15:16:25;23.90;;;10.60;;
34317;SDS011;20582;52.196;20.952;2023-03-30T15:18:52;23.20;;;11.20;;
34317;SDS011;20582;52.196;20.952;2023-03-30T15:21:20;30.58;;;16.42;;
34317;SDS011;20582;52.196;20.952;2023-03-30T15:23:47;28.90;;;13.77;;
34317;SDS011;20582;52.196;20.952;2023-03-30T15:26:14;24.38;;;12.57;;
34317;SDS011;20582;52.196;20.952;2023-03-30T15:28:50;21.38;;;11.20;;
34317;SDS011;20582;52.196;20.952;2023-03-30T15:31:17;22.15;;;11.70;;
34317;SDS011;20582;52.196;20.952;2023-03-30T15:33:50;31.70;;;15.25;;
34317;SDS011;20582;52.196;20.952;2023-03-30T15:38:47;19.08;;;8.93;;
34317;SDS011;20582;52.196;20.952;2023-03-30T15:41:14;19.77;;;10.88;;
34317;SDS011;20582;52.196;20.952;2023-03-30T15:44:26;25.75;;;14.23;;
34317;SDS011;20582;52.196;20.952;2023-03-30T15:46:26;18.67;;;10.02;;
34317;SDS011;20582;52.196;20.952;2023-03-30T15:48:53;18.40;;;10.27;;
34317;SDS011;20582;52.196;20.952;2023-03-30T15:51:35;23.58;;;10.75;;
34317;SDS011;20582;52.196;20.952;2023-03-30T15:54:13;22.20;;;9.85;;
34317;SDS011;20582;52.196;20.952;2023-03-30T15:56:41;19.90;;;10.90;;
34317;SDS011;20582;52.196;20.952;2023-03-30T15:59:12;21.65;;;11.30;;
34317;SDS011;20582;52.196;20.952;2023-03-30T16:01:43;16.92;;;9.10;;
34317;SDS011;20582;52.196;20.952;2023-03-30T16:04:12;20.52;;;10.18;;
34317;SDS011;20582;52.196;20.952;2023-03-30T16:06:39;19.90;;;9.77;;
34317;SDS011;20582;52.196;20.952;2023-03-30T16:09:06;17.60;;;9.80;;
34317;SDS011;20582;52.196;20.952;2023-03-30T16:11:32;17.63;;;9.32;;
34317;SDS011;20582;52.196;20.952;2023-03-30T16:13:58;18.45;;;9.70;;
34317;SDS011;20582;52.196;20.952;2023-03-30T16:16:24;18.17;;;9.68;;
34317;SDS011;20582;52.196;20.952;2023-03-30T16:18:51;18.83;;;10.07;;
34317;SDS011;20582;52.196;20.952;2023-03-30T16:21:17;23.05;;;11.13;;
34317;SDS011;20582;52.196;20.952;2023-03-30T16:23:44;21.00;;;10.60;;
34317;SDS011;20582;52.196;20.952;2023-03-30T16:26:10;17.45;;;9.27;;
34317;SDS011;20582;52.196;20.952;2023-03-30T16:28:36;17.67;;;9.90;;
34317;SDS011;20582;52.196;20.952;2023-03-30T16:31:05;21.42;;;9.43;;
34317;SDS011;20582;52.196;20.952;2023-03-30T16:33:32;17.63;;;10.45;;
34317;SDS011;20582;52.196;20.952;2023-03-30T16:35:57;18.85;;;10.45;;
34317;SDS011;20582;52.196;20.952;2023-03-30T16:38:23;19.15;;;10.02;;